createdAt,value
2022-08-11T00:02:44.062Z,9.30
2022-08-11T00:06:52.229Z,8.50
2022-08-11T00:11:03.479Z,9.10
2022-08-11T00:15:13.194Z,8.50
2022-08-11T00:20:14.843Z,8.80
2022-08-11T00:23:59.793Z,8.90
2022-08-11T00:28:27.036Z,9.00
2022-08-11T00:32:36.436Z,13.30
2022-08-11T00:36:47.941Z,9.60
2022-08-11T00:41:01.023Z,8.70
2022-08-11T00:45:12.832Z,7.60
2022-08-11T00:49:29.501Z,11.50
2022-08-11T00:53:48.328Z,9.60
2022-08-11T00:58:21.865Z,9.20
2022-08-11T01:02:46.753Z,9.00
2022-08-11T01:08:01.905Z,9.80
2022-08-11T01:12:30.207Z,9.40
2022-08-11T01:16:57.811Z,10.00
2022-08-11T01:21:42.792Z,8.10
2022-08-11T01:26:34.390Z,8.10
2022-08-11T01:31:23.435Z,8.60
2022-08-11T01:35:41.901Z,9.70
2022-08-11T01:40:19.345Z,10.40
2022-08-11T01:44:41.835Z,9.30
2022-08-11T01:48:55.894Z,9.60
2022-08-11T01:53:14.438Z,13.60
2022-08-11T01:57:33.898Z,8.90
2022-08-11T02:01:51.334Z,10.30
2022-08-11T02:06:34.878Z,9.00
2022-08-11T02:11:06.064Z,11.40
2022-08-11T02:15:20.162Z,11.10
2022-08-11T02:19:49.570Z,13.60
2022-08-11T02:24:08.255Z,8.60
2022-08-11T02:28:24.047Z,9.20
2022-08-11T02:32:54.117Z,8.60
2022-08-11T02:37:23.526Z,10.10
2022-08-11T02:41:53.852Z,10.30
2022-08-11T02:46:18.682Z,9.60
2022-08-11T02:50:28.696Z,7.90
2022-08-11T02:54:44.161Z,9.90
2022-08-11T02:59:10.753Z,8.20
2022-08-11T03:03:25.906Z,9.70
2022-08-11T03:07:39.695Z,8.50
2022-08-11T03:12:15.190Z,9.50
2022-08-11T03:16:42.900Z,7.90
2022-08-11T03:20:55.655Z,9.50
2022-08-11T03:25:12.396Z,8.30
2022-08-11T03:29:25.359Z,10.10
2022-08-11T03:33:54.223Z,11.20
2022-08-11T03:38:05.901Z,10.90
2022-08-11T03:42:22.345Z,10.70
2022-08-11T03:46:45.461Z,9.00
2022-08-11T03:51:04.762Z,11.10
2022-08-11T03:55:22.644Z,8.80
2022-08-11T04:00:06.815Z,10.80
2022-08-11T04:04:58.497Z,11.10
2022-08-11T04:09:36.673Z,10.50
2022-08-11T04:14:46.169Z,12.10
2022-08-11T04:19:22.870Z,10.20
2022-08-11T04:24:33.408Z,9.20
2022-08-11T04:28:53.633Z,8.80
2022-08-11T04:33:34.263Z,13.10
2022-08-11T04:38:20.592Z,15.70
2022-08-11T04:43:22.913Z,15.30
2022-08-11T04:48:06.819Z,11.90
2022-08-11T04:52:49.727Z,10.40
2022-08-11T04:57:20.284Z,9.20
2022-08-11T05:01:44.027Z,10.10
2022-08-11T05:06:28.341Z,9.60
2022-08-11T05:10:50.142Z,11.30
2022-08-11T05:15:15.880Z,10.00
2022-08-11T05:19:41.619Z,12.70
2022-08-11T05:24:08.087Z,11.20
2022-08-11T05:28:34.535Z,15.60
2022-08-11T05:33:06.049Z,13.80
2022-08-11T05:37:26.662Z,14.00
2022-08-11T05:41:53.109Z,15.60
2022-08-11T05:46:20.565Z,12.90
2022-08-11T05:50:46.674Z,12.60
2022-08-11T05:55:12.477Z,11.80
2022-08-11T05:59:23.184Z,13.70
2022-08-11T06:03:32.690Z,15.10
2022-08-11T06:07:49.220Z,10.70
2022-08-11T06:12:02.324Z,13.30
2022-08-11T06:16:13.027Z,16.30
2022-08-11T06:20:22.453Z,11.40
2022-08-11T06:24:32.207Z,10.60
2022-08-11T06:28:45.063Z,12.40
2022-08-11T06:32:57.901Z,7.40
2022-08-11T06:37:20.701Z,8.00
2022-08-11T06:41:32.356Z,7.80
2022-08-11T06:45:49.036Z,7.60
2022-08-11T06:50:17.476Z,9.00
2022-08-11T06:54:26.902Z,8.50
2022-08-11T06:58:54.460Z,9.00
2022-08-11T07:03:10.579Z,8.10
2022-08-11T07:07:55.018Z,8.70
2022-08-11T07:12:38.723Z,10.70
2022-08-11T07:16:49.360Z,9.50
2022-08-11T07:22:01.183Z,9.20
2022-08-11T07:26:12.387Z,7.50
2022-08-11T07:30:20.585Z,7.20
2022-08-11T07:34:29.944Z,6.50
2022-08-11T07:38:47.660Z,7.50
2022-08-11T07:42:57.618Z,12.00
2022-08-11T07:47:23.661Z,8.40
2022-08-11T07:51:49.326Z,7.20
2022-08-11T07:55:59.202Z,6.10
2022-08-11T08:00:29.895Z,5.90
2022-08-11T08:04:55.486Z,5.90
2022-08-11T08:09:24.880Z,6.80
2022-08-11T08:13:51.143Z,6.70
2022-08-11T08:18:09.932Z,7.00
2022-08-11T08:22:37.315Z,8.90
2022-08-11T08:27:03.373Z,8.60
2022-08-11T08:31:11.505Z,8.90
2022-08-11T08:35:19.587Z,9.00
2022-08-11T08:39:27.367Z,7.20
2022-08-11T08:43:48.947Z,7.20
2022-08-11T08:48:02.289Z,9.80
2022-08-11T08:52:30.476Z,6.80
2022-08-11T08:56:43.236Z,6.80
2022-08-11T09:00:54.779Z,7.60
2022-08-11T09:05:03.920Z,8.70
2022-08-11T09:09:13.801Z,5.90
2022-08-11T09:13:21.416Z,6.00
2022-08-11T09:17:32.173Z,7.20
2022-08-11T09:21:49.046Z,7.50
2022-08-11T09:26:17.149Z,7.70
2022-08-11T09:30:26.203Z,7.90
2022-08-11T09:34:36.879Z,8.60
2022-08-11T09:39:07.943Z,7.40
2022-08-11T09:43:34.862Z,7.30
2022-08-11T09:47:44.409Z,9.60
2022-08-11T09:51:56.579Z,9.50
2022-08-11T09:56:34.451Z,6.70
2022-08-11T10:00:44.919Z,6.70
2022-08-11T10:04:52.538Z,8.00
2022-08-11T10:09:01.224Z,7.10
2022-08-11T10:14:12.249Z,6.10
2022-08-11T10:18:21.105Z,7.20
2022-08-11T10:22:47.203Z,5.40
2022-08-11T10:27:00.099Z,5.70
2022-08-11T10:31:30.554Z,5.50
2022-08-11T10:35:53.228Z,5.60
2022-08-11T10:40:01.011Z,7.10
2022-08-11T10:44:09.607Z,8.20
2022-08-11T10:48:17.794Z,5.90
2022-08-11T10:52:43.317Z,5.40
2022-08-11T10:57:08.160Z,5.60
2022-08-11T11:01:16.432Z,5.50
2022-08-11T11:05:28.835Z,11.30
2022-08-11T11:09:40.132Z,6.40
2022-08-11T11:14:08.680Z,9.10
2022-08-11T11:18:20.273Z,6.00
2022-08-11T11:22:42.582Z,6.20
2022-08-11T11:26:56.462Z,6.30
2022-08-11T11:31:15.705Z,6.10
2022-08-11T11:35:37.779Z,5.90
2022-08-11T11:39:45.698Z,5.40
2022-08-11T11:43:53.890Z,5.80
2022-08-11T11:48:03.240Z,4.80
2022-08-11T11:52:15.061Z,6.90
2022-08-11T11:56:25.736Z,5.40
2022-08-11T12:00:51.423Z,6.40
2022-08-11T12:04:59.395Z,6.00
2022-08-11T12:09:08.091Z,5.20
2022-08-11T12:13:34.375Z,5.80
2022-08-11T12:17:42.317Z,5.40
2022-08-11T12:22:07.583Z,6.00
2022-08-11T12:26:35.407Z,6.40
2022-08-11T12:34:51.481Z,4.70
2022-08-11T12:38:59.936Z,5.00
2022-08-11T12:43:38.834Z,6.10
2022-08-11T12:48:57.594Z,5.60
2022-08-11T12:52:44.000Z,5.00
2022-08-11T12:57:15.037Z,7.50
2022-08-11T13:01:49.361Z,5.40
2022-08-11T13:05:59.259Z,5.30
2022-08-11T13:10:11.215Z,5.10
2022-08-11T13:14:25.127Z,5.10
2022-08-11T13:18:32.854Z,5.00
2022-08-11T13:22:41.464Z,5.20
2022-08-11T13:26:50.560Z,6.20
2022-08-11T13:31:15.280Z,6.40
2022-08-11T13:35:23.512Z,6.10
2022-08-11T13:39:32.908Z,4.80
2022-08-11T13:43:42.315Z,6.40
2022-08-11T13:47:50.547Z,6.70
2022-08-11T13:51:59.364Z,5.20
2022-08-11T13:56:07.694Z,6.30
2022-08-11T14:00:25.055Z,8.40
2022-08-11T14:04:39.681Z,6.90
2022-08-11T14:08:47.671Z,7.10
2022-08-11T14:13:18.362Z,6.20
2022-08-11T14:17:35.917Z,8.00
2022-08-11T14:22:10.345Z,5.80
2022-08-11T14:26:26.552Z,6.20
2022-08-11T14:30:51.886Z,5.50
2022-08-11T14:35:00.057Z,6.20
2022-08-11T14:39:13.404Z,9.80
2022-08-11T14:44:13.391Z,5.70
2022-08-11T14:48:10.283Z,6.40
2022-08-11T14:52:21.069Z,6.30
2022-08-11T14:56:38.827Z,5.10
2022-08-11T15:00:47.843Z,4.80
2022-08-11T15:04:56.515Z,6.40
2022-08-11T15:09:08.896Z,7.70
2022-08-11T15:13:19.962Z,5.20
2022-08-11T15:17:36.945Z,5.20
2022-08-11T15:22:08.759Z,7.10
2022-08-11T15:26:40.647Z,6.20
2022-08-11T15:31:07.925Z,4.70
2022-08-11T15:35:39.616Z,5.30
2022-08-11T15:40:31.677Z,5.20
2022-08-11T15:45:03.735Z,6.00
2022-08-11T15:49:21.707Z,6.50
2022-08-11T15:53:36.430Z,7.60
2022-08-11T15:58:01.250Z,5.20
2022-08-11T16:02:27.290Z,5.70
2022-08-11T16:06:36.039Z,5.90
2022-08-11T16:10:46.451Z,5.70
2022-08-11T16:15:20.139Z,6.70
2022-08-11T16:19:36.013Z,5.30
2022-08-11T16:23:44.704Z,8.30
2022-08-11T16:27:55.684Z,7.90
2022-08-11T16:32:19.118Z,6.10
2022-08-11T16:36:45.952Z,5.10
2022-08-11T16:40:55.693Z,7.30
2022-08-11T16:45:21.637Z,6.30
2022-08-11T16:49:34.632Z,6.00
2022-08-11T16:54:00.027Z,7.40
2022-08-11T16:58:31.071Z,6.30
2022-08-11T17:02:59.313Z,6.30
2022-08-11T17:07:42.070Z,6.30
2022-08-11T17:12:12.305Z,6.90
2022-08-11T17:16:24.475Z,5.40
2022-08-11T17:20:41.419Z,5.90
2022-08-11T17:24:53.041Z,6.70
2022-08-11T17:29:02.427Z,6.10
2022-08-11T17:33:27.729Z,8.90
2022-08-11T17:37:37.689Z,6.80
2022-08-11T17:42:04.954Z,6.40
2022-08-11T17:46:32.829Z,8.20
2022-08-11T17:50:41.360Z,7.20
2022-08-11T17:55:07.726Z,4.80
2022-08-11T17:59:33.837Z,5.20
2022-08-11T18:03:53.094Z,5.70
2022-08-11T18:08:27.372Z,5.40
2022-08-11T18:12:52.461Z,5.50
2022-08-11T18:17:17.973Z,5.80
2022-08-11T18:21:43.441Z,5.90
2022-08-11T18:26:09.022Z,8.80
2022-08-11T18:30:33.763Z,5.40
2022-08-11T18:35:04.427Z,6.50
2022-08-11T18:39:31.844Z,7.70
2022-08-11T18:44:00.538Z,6.50
2022-08-11T18:48:33.865Z,6.10
2022-08-11T18:53:02.351Z,5.70
2022-08-11T18:57:28.545Z,8.70
2022-08-11T19:01:57.755Z,7.70
2022-08-11T19:06:38.449Z,6.40
2022-08-11T19:11:05.587Z,6.10
2022-08-11T19:15:30.677Z,5.40
2022-08-11T19:19:58.167Z,7.00
2022-08-11T19:24:24.989Z,5.50
2022-08-11T19:28:53.422Z,7.70
2022-08-11T19:33:22.839Z,6.70
2022-08-11T19:38:06.512Z,5.90
2022-08-11T19:42:33.130Z,8.80
2022-08-11T19:46:59.103Z,6.90
2022-08-11T19:51:25.161Z,6.00
2022-08-11T19:55:53.365Z,6.20
2022-08-11T20:00:19.548Z,6.10
2022-08-11T20:04:46.038Z,4.80
2022-08-11T20:09:15.799Z,6.40
2022-08-11T20:13:42.529Z,5.50
2022-08-11T20:18:08.765Z,5.20
2022-08-11T20:22:34.952Z,6.70
2022-08-11T20:27:00.196Z,6.00
2022-08-11T20:31:26.945Z,6.10
2022-08-11T20:35:52.634Z,6.80
2022-08-11T20:40:23.725Z,6.10
2022-08-11T20:44:50.433Z,4.90
2022-08-11T20:49:16.422Z,5.60
2022-08-11T20:53:43.783Z,6.60
2022-08-11T20:58:18.239Z,6.00
2022-08-11T21:02:46.144Z,6.20
2022-08-11T21:07:27.743Z,5.40
2022-08-11T21:11:56.002Z,6.30
2022-08-11T21:16:26.596Z,5.60
2022-08-11T21:20:52.892Z,6.50
2022-08-11T21:25:19.481Z,7.50
2022-08-11T21:29:46.545Z,6.30
2022-08-11T21:34:11.832Z,6.50
2022-08-11T21:38:37.448Z,5.80
2022-08-11T21:43:04.386Z,6.10
2022-08-11T21:47:43.128Z,7.70
2022-08-11T21:52:09.190Z,4.90
2022-08-11T21:56:34.908Z,6.90
2022-08-11T22:01:00.091Z,5.80
2022-08-11T22:05:26.575Z,5.80
2022-08-11T22:09:52.261Z,5.50
2022-08-11T22:14:17.182Z,9.70
2022-08-11T22:18:43.391Z,8.10
2022-08-11T22:23:08.951Z,6.90
2022-08-11T22:27:34.372Z,5.40
2022-08-11T22:32:00.110Z,7.10
2022-08-11T22:36:26.343Z,8.20
2022-08-11T22:40:52.315Z,6.80
2022-08-11T22:45:17.212Z,7.30
2022-08-11T22:49:58.228Z,6.90
2022-08-11T22:54:24.555Z,7.60
2022-08-11T22:58:50.841Z,5.20
2022-08-11T23:03:37.112Z,6.20
2022-08-11T23:08:05.321Z,7.40
2022-08-11T23:12:31.118Z,7.20
2022-08-11T23:16:58.351Z,5.60
2022-08-11T23:21:24.947Z,6.50
2022-08-11T23:25:51.246Z,7.00
2022-08-11T23:30:19.003Z,6.10
2022-08-11T23:35:37.289Z,8.00
2022-08-11T23:39:35.939Z,6.70
2022-08-11T23:44:01.101Z,6.60
2022-08-11T23:48:28.123Z,5.20
2022-08-11T23:52:53.985Z,8.80
2022-08-11T23:57:19.719Z,7.70
